sensor_id;sensor_type;location;lat;lon;timestamp;temperature;humidity
2130;DHT22;1071;52.544;13.374;2023-03-01T00:02:19;4.50;94.10
2130;DHT22;1071;52.544;13.374;2023-03-01T00:04:47;4.40;94.10
2130;DHT22;1071;52.544;13.374;2023-03-01T00:07:14;4.40;94.20
2130;DHT22;1071;52.544;13.374;2023-03-01T00:09:41;4.40;94.30
2130;DHT22;1071;52.544;13.374;2023-03-01T00:12:12;4.40;94.40
2130;DHT22;1071;52.544;13.374;2023-03-01T00:14:40;4.40;94.60
2130;DHT22;1071;52.544;13.374;2023-03-01T00:17:07;4.40;94.70
2130;DHT22;1071;52.544;13.374;2023-03-01T00:19:35;4.40;94.80
2130;DHT22;1071;52.544;13.374;2023-03-01T00:22:02;4.40;95.00
2130;DHT22;1071;52.544;13.374;2023-03-01T00:24:31;4.40;95.10
2130;DHT22;1071;52.544;13.374;2023-03-01T00:26:58;4.40;95.10
2130;DHT22;1071;52.544;13.374;2023-03-01T00:29:26;4.30;95.20
2130;DHT22;1071;52.544;13.374;2023-03-01T00:31:53;4.30;95.40
2130;DHT22;1071;52.544;13.374;2023-03-01T00:34:20;4.30;95.40
2130;DHT22;1071;52.544;13.374;2023-03-01T00:36:47;4.40;95.50
2130;DHT22;1071;52.544;13.374;2023-03-01T00:39:15;4.40;95.40
2130;DHT22;1071;52.544;13.374;2023-03-01T00:41:42;4.30;95.50
2130;DHT22;1071;52.544;13.374;2023-03-01T00:44:10;4.30;95.50
2130;DHT22;1071;52.544;13.374;2023-03-01T00:46:39;4.30;95.60
2130;DHT22;1071;52.544;13.374;2023-03-01T00:49:06;4.20;95.70
2130;DHT22;1071;52.544;13.374;2023-03-01T00:51:33;4.30;96.00
2130;DHT22;1071;52.544;13.374;2023-03-01T00:54:02;4.20;96.10
2130;DHT22;1071;52.544;13.374;2023-03-01T00:56:30;4.20;96.20
2130;DHT22;1071;52.544;13.374;2023-03-01T00:58:58;4.20;96.30
2130;DHT22;1071;52.544;13.374;2023-03-01T01:01:26;4.20;96.30
2130;DHT22;1071;52.544;13.374;2023-03-01T01:03:59;4.20;96.40
2130;DHT22;1071;52.544;13.374;2023-03-01T01:06:29;4.20;96.40
2130;DHT22;1071;52.544;13.374;2023-03-01T01:08:57;4.20;96.40
2130;DHT22;1071;52.544;13.374;2023-03-01T01:11:27;4.20;96.90
2130;DHT22;1071;52.544;13.374;2023-03-01T01:13:55;4.20;96.60
2130;DHT22;1071;52.544;13.374;2023-03-01T01:16:24;4.20;96.60
2130;DHT22;1071;52.544;13.374;2023-03-01T01:18:52;4.20;96.70
2130;DHT22;1071;52.544;13.374;2023-03-01T01:21:23;4.20;96.70
2130;DHT22;1071;52.544;13.374;2023-03-01T01:23:50;4.10;96.80
2130;DHT22;1071;52.544;13.374;2023-03-01T01:26:20;4.10;96.80
2130;DHT22;1071;52.544;13.374;2023-03-01T01:28:48;4.10;96.90
2130;DHT22;1071;52.544;13.374;2023-03-01T01:31:15;4.10;96.90
2130;DHT22;1071;52.544;13.374;2023-03-01T01:33:43;4.00;96.90
2130;DHT22;1071;52.544;13.374;2023-03-01T01:36:10;4.00;96.80
2130;DHT22;1071;52.544;13.374;2023-03-01T01:38:39;4.00;96.80
2130;DHT22;1071;52.544;13.374;2023-03-01T01:41:10;4.00;96.80
2130;DHT22;1071;52.544;13.374;2023-03-01T01:43:40;4.00;96.80
2130;DHT22;1071;52.544;13.374;2023-03-01T01:46:17;3.90;96.60
2130;DHT22;1071;52.544;13.374;2023-03-01T01:48:49;3.90;96.70
2130;DHT22;1071;52.544;13.374;2023-03-01T01:51:19;3.90;96.70
2130;DHT22;1071;52.544;13.374;2023-03-01T01:53:54;3.90;96.80
2130;DHT22;1071;52.544;13.374;2023-03-01T01:56:23;3.90;96.80
2130;DHT22;1071;52.544;13.374;2023-03-01T01:58:51;3.90;96.80
2130;DHT22;1071;52.544;13.374;2023-03-01T02:01:21;3.90;96.70
2130;DHT22;1071;52.544;13.374;2023-03-01T02:03:48;3.80;96.50
2130;DHT22;1071;52.544;13.374;2023-03-01T02:06:21;3.80;96.30
2130;DHT22;1071;52.544;13.374;2023-03-01T02:08:51;3.80;96.20
2130;DHT22;1071;52.544;13.374;2023-03-01T02:11:20;3.70;96.10
2130;DHT22;1071;52.544;13.374;2023-03-01T02:13:48;3.70;96.20
2130;DHT22;1071;52.544;13.374;2023-03-01T02:16:16;3.70;96.20
2130;DHT22;1071;52.544;13.374;2023-03-01T02:18:43;3.70;96.20
2130;DHT22;1071;52.544;13.374;2023-03-01T02:21:31;3.70;96.40
2130;DHT22;1071;52.544;13.374;2023-03-01T02:24:10;3.70;96.50
2130;DHT22;1071;52.544;13.374;2023-03-01T02:26:48;3.70;96.60
2130;DHT22;1071;52.544;13.374;2023-03-01T02:29:17;3.60;96.70
2130;DHT22;1071;52.544;13.374;2023-03-01T02:31:45;3.70;96.80
2130;DHT22;1071;52.544;13.374;2023-03-01T02:34:14;3.70;96.80
2130;DHT22;1071;52.544;13.374;2023-03-01T02:36:45;3.60;96.80
2130;DHT22;1071;52.544;13.374;2023-03-01T02:39:21;3.60;96.80
2130;DHT22;1071;52.544;13.374;2023-03-01T02:41:51;3.60;97.00
2130;DHT22;1071;52.544;13.374;2023-03-01T02:44:21;3.60;97.20
2130;DHT22;1071;52.544;13.374;2023-03-01T02:46:51;3.60;97.30
2130;DHT22;1071;52.544;13.374;2023-03-01T02:49:24;3.60;97.40
2130;DHT22;1071;52.544;13.374;2023-03-01T02:52:08;3.60;97.60
2130;DHT22;1071;52.544;13.374;2023-03-01T02:54:45;3.60;97.60
2130;DHT22;1071;52.544;13.374;2023-03-01T02:57:13;3.60;97.60
2130;DHT22;1071;52.544;13.374;2023-03-01T02:59:42;3.60;97.70
2130;DHT22;1071;52.544;13.374;2023-03-01T03:02:20;3.60;97.60
2130;DHT22;1071;52.544;13.374;2023-03-01T03:05:02;3.60;97.60
2130;DHT22;1071;52.544;13.374;2023-03-01T03:07:32;3.60;97.70
2130;DHT22;1071;52.544;13.374;2023-03-01T03:09:59;3.60;97.80
2130;DHT22;1071;52.544;13.374;2023-03-01T03:12:26;3.60;97.80
2130;DHT22;1071;52.544;13.374;2023-03-01T03:14:55;3.60;97.90
2130;DHT22;1071;52.544;13.374;2023-03-01T03:17:22;3.60;98.00
2130;DHT22;1071;52.544;13.374;2023-03-01T03:19:49;3.50;98.00
2130;DHT22;1071;52.544;13.374;2023-03-01T03:22:16;3.50;98.10
2130;DHT22;1071;52.544;13.374;2023-03-01T03:24:46;3.50;98.10
2130;DHT22;1071;52.544;13.374;2023-03-01T03:27:13;3.50;98.10
2130;DHT22;1071;52.544;13.374;2023-03-01T03:29:40;3.50;98.10
2130;DHT22;1071;52.544;13.374;2023-03-01T03:32:08;3.60;98.10
2130;DHT22;1071;52.544;13.374;2023-03-01T03:34:35;3.60;98.10
2130;DHT22;1071;52.544;13.374;2023-03-01T03:37:02;3.50;98.10
2130;DHT22;1071;52.544;13.374;2023-03-01T03:39:29;3.50;98.10
2130;DHT22;1071;52.544;13.374;2023-03-01T03:42:02;3.60;98.10
2130;DHT22;1071;52.544;13.374;2023-03-01T03:44:29;3.60;98.10
2130;DHT22;1071;52.544;13.374;2023-03-01T03:46:56;3.60;98.10
2130;DHT22;1071;52.544;13.374;2023-03-01T03:49:25;3.60;98.20
2130;DHT22;1071;52.544;13.374;2023-03-01T03:51:52;3.60;98.40
2130;DHT22;1071;52.544;13.374;2023-03-01T03:54:19;3.60;98.50
2130;DHT22;1071;52.544;13.374;2023-03-01T03:56:47;3.60;98.80
2130;DHT22;1071;52.544;13.374;2023-03-01T03:59:14;3.60;98.80
2130;DHT22;1071;52.544;13.374;2023-03-01T04:01:41;3.60;98.50
2130;DHT22;1071;52.544;13.374;2023-03-01T04:04:10;3.60;98.60
2130;DHT22;1071;52.544;13.374;2023-03-01T04:06:38;3.60;98.60
2130;DHT22;1071;52.544;13.374;2023-03-01T04:09:05;3.60;98.70
2130;DHT22;1071;52.544;13.374;2023-03-01T04:11:33;3.70;98.80
2130;DHT22;1071;52.544;13.374;2023-03-01T04:14:00;3.60;98.90
2130;DHT22;1071;52.544;13.374;2023-03-01T04:16:27;3.60;98.90
2130;DHT22;1071;52.544;13.374;2023-03-01T04:18:54;3.60;99.00
2130;DHT22;1071;52.544;13.374;2023-03-01T04:21:22;3.60;99.10
2130;DHT22;1071;52.544;13.374;2023-03-01T04:23:50;3.50;99.10
2130;DHT22;1071;52.544;13.374;2023-03-01T04:26:18;3.50;99.20
2130;DHT22;1071;52.544;13.374;2023-03-01T04:28:46;3.50;99.30
2130;DHT22;1071;52.544;13.374;2023-03-01T04:31:20;3.50;99.40
2130;DHT22;1071;52.544;13.374;2023-03-01T04:33:49;3.50;99.50
2130;DHT22;1071;52.544;13.374;2023-03-01T04:36:19;3.50;99.50
2130;DHT22;1071;52.544;13.374;2023-03-01T04:38:46;3.50;99.60
2130;DHT22;1071;52.544;13.374;2023-03-01T04:41:16;3.50;99.60
2130;DHT22;1071;52.544;13.374;2023-03-01T04:43:44;3.50;99.60
2130;DHT22;1071;52.544;13.374;2023-03-01T04:46:14;3.50;99.60
2130;DHT22;1071;52.544;13.374;2023-03-01T04:48:42;3.40;99.50
2130;DHT22;1071;52.544;13.374;2023-03-01T04:51:09;3.40;99.60
2130;DHT22;1071;52.544;13.374;2023-03-01T04:53:39;3.40;99.70
2130;DHT22;1071;52.544;13.374;2023-03-01T04:56:09;3.50;99.80
2130;DHT22;1071;52.544;13.374;2023-03-01T04:58:38;3.50;99.80
2130;DHT22;1071;52.544;13.374;2023-03-01T05:01:09;3.40;99.90
2130;DHT22;1071;52.544;13.374;2023-03-01T05:03:40;3.40;99.90
2130;DHT22;1071;52.544;13.374;2023-03-01T05:06:07;3.40;99.90
2130;DHT22;1071;52.544;13.374;2023-03-01T05:08:34;3.40;99.90
2130;DHT22;1071;52.544;13.374;2023-03-01T05:11:03;3.50;99.90
2130;DHT22;1071;52.544;13.374;2023-03-01T05:13:33;3.50;99.90
2130;DHT22;1071;52.544;13.374;2023-03-01T05:16:02;3.50;99.90
2130;DHT22;1071;52.544;13.374;2023-03-01T05:18:31;3.50;99.90
2130;DHT22;1071;52.544;13.374;2023-03-01T05:21:03;3.50;99.90
2130;DHT22;1071;52.544;13.374;2023-03-01T05:23:36;3.40;99.90
2130;DHT22;1071;52.544;13.374;2023-03-01T05:26:04;3.40;99.90
2130;DHT22;1071;52.544;13.374;2023-03-01T05:28:32;3.30;99.90
2130;DHT22;1071;52.544;13.374;2023-03-01T05:31:01;3.30;99.90
2130;DHT22;1071;52.544;13.374;2023-03-01T05:33:37;3.20;99.90
2130;DHT22;1071;52.544;13.374;2023-03-01T05:36:09;3.30;99.90
2130;DHT22;1071;52.544;13.374;2023-03-01T05:38:37;3.20;99.90
2130;DHT22;1071;52.544;13.374;2023-03-01T05:41:04;3.20;99.90
2130;DHT22;1071;52.544;13.374;2023-03-01T05:43:32;3.20;99.90
2130;DHT22;1071;52.544;13.374;2023-03-01T05:46:01;3.20;99.90
2130;DHT22;1071;52.544;13.374;2023-03-01T05:48:29;3.20;99.90
2130;DHT22;1071;52.544;13.374;2023-03-01T05:51:01;3.20;99.90
2130;DHT22;1071;52.544;13.374;2023-03-01T05:53:29;3.20;99.90
2130;DHT22;1071;52.544;13.374;2023-03-01T05:55:56;3.10;99.90
2130;DHT22;1071;52.544;13.374;2023-03-01T05:58:23;3.20;99.90
2130;DHT22;1071;52.544;13.374;2023-03-01T06:00:50;3.10;99.90
2130;DHT22;1071;52.544;13.374;2023-03-01T06:03:19;3.10;99.90
2130;DHT22;1071;52.544;13.374;2023-03-01T06:05:46;3.10;99.90
2130;DHT22;1071;52.544;13.374;2023-03-01T06:08:13;3.20;99.90
2130;DHT22;1071;52.544;13.374;2023-03-01T06:10:40;3.20;99.90
2130;DHT22;1071;52.544;13.374;2023-03-01T06:13:07;3.20;99.90
2130;DHT22;1071;52.544;13.374;2023-03-01T06:15:34;3.20;99.90
2130;DHT22;1071;52.544;13.374;2023-03-01T06:18:01;3.20;99.90
2130;DHT22;1071;52.544;13.374;2023-03-01T06:20:30;3.20;99.90
2130;DHT22;1071;52.544;13.374;2023-03-01T06:22:57;3.20;99.90
2130;DHT22;1071;52.544;13.374;2023-03-01T06:25:32;3.20;99.90
2130;DHT22;1071;52.544;13.374;2023-03-01T06:27:59;3.20;99.90
2130;DHT22;1071;52.544;13.374;2023-03-01T06:30:26;3.20;99.90
2130;DHT22;1071;52.544;13.374;2023-03-01T06:32:53;3.20;99.90
2130;DHT22;1071;52.544;13.374;2023-03-01T06:35:26;3.20;99.90
2130;DHT22;1071;52.544;13.374;2023-03-01T06:37:57;3.30;99.90
2130;DHT22;1071;52.544;13.374;2023-03-01T06:40:26;3.20;99.90
2130;DHT22;1071;52.544;13.374;2023-03-01T06:42:53;3.30;99.90
2130;DHT22;1071;52.544;13.374;2023-03-01T06:45:21;3.30;99.90
2130;DHT22;1071;52.544;13.374;2023-03-01T06:47:48;3.30;99.90
2130;DHT22;1071;52.544;13.374;2023-03-01T06:50:17;3.30;99.90
2130;DHT22;1071;52.544;13.374;2023-03-01T06:52:45;3.30;99.90
2130;DHT22;1071;52.544;13.374;2023-03-01T06:55:13;3.30;99.90
2130;DHT22;1071;52.544;13.374;2023-03-01T06:57:41;3.40;99.90
2130;DHT22;1071;52.544;13.374;2023-03-01T07:00:09;3.40;99.90
2130;DHT22;1071;52.544;13.374;2023-03-01T07:02:36;3.40;99.90
2130;DHT22;1071;52.544;13.374;2023-03-01T07:05:03;3.40;99.90
2130;DHT22;1071;52.544;13.374;2023-03-01T07:07:30;3.40;99.90
2130;DHT22;1071;52.544;13.374;2023-03-01T07:09:58;3.30;99.90
2130;DHT22;1071;52.544;13.374;2023-03-01T07:12:29;3.40;99.90
2130;DHT22;1071;52.544;13.374;2023-03-01T07:14:55;3.40;99.90
2130;DHT22;1071;52.544;13.374;2023-03-01T07:17:22;3.40;99.90
2130;DHT22;1071;52.544;13.374;2023-03-01T07:19:49;3.40;99.90
2130;DHT22;1071;52.544;13.374;2023-03-01T07:22:17;3.40;99.90
2130;DHT22;1071;52.544;13.374;2023-03-01T07:24:44;3.50;99.90
2130;DHT22;1071;52.544;13.374;2023-03-01T07:27:11;3.50;99.90
2130;DHT22;1071;52.544;13.374;2023-03-01T07:29:39;3.50;99.90
2130;DHT22;1071;52.544;13.374;2023-03-01T07:32:06;3.60;99.90
2130;DHT22;1071;52.544;13.374;2023-03-01T07:34:33;3.60;99.90
2130;DHT22;1071;52.544;13.374;2023-03-01T07:37:00;3.70;99.90
2130;DHT22;1071;52.544;13.374;2023-03-01T07:39:27;3.70;99.90
2130;DHT22;1071;52.544;13.374;2023-03-01T07:41:54;3.80;99.90
2130;DHT22;1071;52.544;13.374;2023-03-01T07:44:21;3.80;99.90
2130;DHT22;1071;52.544;13.374;2023-03-01T07:46:52;3.80;99.90
2130;DHT22;1071;52.544;13.374;2023-03-01T07:49:22;3.90;99.90
2130;DHT22;1071;52.544;13.374;2023-03-01T07:51:49;3.90;99.90
2130;DHT22;1071;52.544;13.374;2023-03-01T07:54:16;4.00;99.90
2130;DHT22;1071;52.544;13.374;2023-03-01T07:56:43;4.00;99.90
2130;DHT22;1071;52.544;13.374;2023-03-01T07:59:10;4.10;99.90
2130;DHT22;1071;52.544;13.374;2023-03-01T08:01:37;4.10;99.90
2130;DHT22;1071;52.544;13.374;2023-03-01T08:04:06;4.20;99.90
2130;DHT22;1071;52.544;13.374;2023-03-01T08:06:34;4.30;99.90
2130;DHT22;1071;52.544;13.374;2023-03-01T08:09:02;4.30;99.90
2130;DHT22;1071;52.544;13.374;2023-03-01T08:11:32;4.40;99.90
2130;DHT22;1071;52.544;13.374;2023-03-01T08:14:01;4.40;99.90
2130;DHT22;1071;52.544;13.374;2023-03-01T08:16:28;4.50;99.90
2130;DHT22;1071;52.544;13.374;2023-03-01T08:19:06;4.50;99.90
2130;DHT22;1071;52.544;13.374;2023-03-01T08:21:33;4.60;99.90
2130;DHT22;1071;52.544;13.374;2023-03-01T08:24:01;4.70;99.90
2130;DHT22;1071;52.544;13.374;2023-03-01T08:26:29;4.70;99.90
2130;DHT22;1071;52.544;13.374;2023-03-01T08:28:56;4.80;99.90
2130;DHT22;1071;52.544;13.374;2023-03-01T08:31:24;4.80;99.90
2130;DHT22;1071;52.544;13.374;2023-03-01T08:33:53;4.90;99.90
2130;DHT22;1071;52.544;13.374;2023-03-01T08:36:25;5.00;99.90
2130;DHT22;1071;52.544;13.374;2023-03-01T08:38:53;5.10;99.90
2130;DHT22;1071;52.544;13.374;2023-03-01T08:41:21;5.10;99.60
2130;DHT22;1071;52.544;13.374;2023-03-01T08:43:50;5.20;99.40
2130;DHT22;1071;52.544;13.374;2023-03-01T08:46:24;5.20;99.00
2130;DHT22;1071;52.544;13.374;2023-03-01T08:48:51;5.30;98.40
2130;DHT22;1071;52.544;13.374;2023-03-01T08:51:19;5.40;98.20
2130;DHT22;1071;52.544;13.374;2023-03-01T08:53:48;5.50;98.20
2130;DHT22;1071;52.544;13.374;2023-03-01T08:56:16;5.50;98.00
2130;DHT22;1071;52.544;13.374;2023-03-01T08:58:45;5.60;97.80
2130;DHT22;1071;52.544;13.374;2023-03-01T09:01:16;5.60;97.50
2130;DHT22;1071;52.544;13.374;2023-03-01T09:03:44;5.70;97.30
2130;DHT22;1071;52.544;13.374;2023-03-01T09:06:12;5.80;97.40
2130;DHT22;1071;52.544;13.374;2023-03-01T09:08:40;5.90;96.90
2130;DHT22;1071;52.544;13.374;2023-03-01T09:11:10;6.00;96.30
2130;DHT22;1071;52.544;13.374;2023-03-01T09:13:38;6.00;96.20
2130;DHT22;1071;52.544;13.374;2023-03-01T09:16:06;6.00;96.10
2130;DHT22;1071;52.544;13.374;2023-03-01T09:18:35;6.10;95.90
2130;DHT22;1071;52.544;13.374;2023-03-01T09:21:03;6.10;95.60
2130;DHT22;1071;52.544;13.374;2023-03-01T09:23:33;6.20;95.60
2130;DHT22;1071;52.544;13.374;2023-03-01T09:26:01;6.20;95.50
2130;DHT22;1071;52.544;13.374;2023-03-01T09:28:30;6.30;95.50
2130;DHT22;1071;52.544;13.374;2023-03-01T09:30:58;6.30;95.30
2130;DHT22;1071;52.544;13.374;2023-03-01T09:33:26;6.40;94.70
2130;DHT22;1071;52.544;13.374;2023-03-01T09:35:56;6.50;94.50
2130;DHT22;1071;52.544;13.374;2023-03-01T09:38:23;6.50;94.10
2130;DHT22;1071;52.544;13.374;2023-03-01T09:40:50;6.60;94.10
2130;DHT22;1071;52.544;13.374;2023-03-01T09:43:23;6.60;93.90
2130;DHT22;1071;52.544;13.374;2023-03-01T09:45:56;6.70;93.20
2130;DHT22;1071;52.544;13.374;2023-03-01T09:48:27;6.70;93.20
2130;DHT22;1071;52.544;13.374;2023-03-01T09:50:56;6.80;93.10
2130;DHT22;1071;52.544;13.374;2023-03-01T09:53:27;6.80;93.20
2130;DHT22;1071;52.544;13.374;2023-03-01T09:56:01;6.90;93.20
2130;DHT22;1071;52.544;13.374;2023-03-01T09:58:37;6.90;92.70
2130;DHT22;1071;52.544;13.374;2023-03-01T10:01:19;7.00;92.50
2130;DHT22;1071;52.544;13.374;2023-03-01T10:04:04;7.00;92.20
2130;DHT22;1071;52.544;13.374;2023-03-01T10:06:36;7.10;92.30
2130;DHT22;1071;52.544;13.374;2023-03-01T10:09:09;7.10;92.40
2130;DHT22;1071;52.544;13.374;2023-03-01T10:11:43;7.20;92.10
2130;DHT22;1071;52.544;13.374;2023-03-01T10:14:18;7.20;92.00
2130;DHT22;1071;52.544;13.374;2023-03-01T10:16:55;7.30;91.90
2130;DHT22;1071;52.544;13.374;2023-03-01T10:19:31;7.40;90.70
2130;DHT22;1071;52.544;13.374;2023-03-01T10:22:05;7.50;90.40
2130;DHT22;1071;52.544;13.374;2023-03-01T10:24:41;7.50;89.90
2130;DHT22;1071;52.544;13.374;2023-03-01T10:27:11;7.50;87.90
2130;DHT22;1071;52.544;13.374;2023-03-01T10:29:48;7.60;86.60
2130;DHT22;1071;52.544;13.374;2023-03-01T10:32:18;7.60;85.90
2130;DHT22;1071;52.544;13.374;2023-03-01T10:34:47;7.60;85.90
2130;DHT22;1071;52.544;13.374;2023-03-01T10:37:15;7.70;85.70
2130;DHT22;1071;52.544;13.374;2023-03-01T10:39:57;7.70;85.40
2130;DHT22;1071;52.544;13.374;2023-03-01T10:42:32;7.80;84.00
2130;DHT22;1071;52.544;13.374;2023-03-01T10:45:15;7.80;82.80
2130;DHT22;1071;52.544;13.374;2023-03-01T10:47:44;7.80;83.00
2130;DHT22;1071;52.544;13.374;2023-03-01T10:50:19;7.90;79.60
2130;DHT22;1071;52.544;13.374;2023-03-01T10:52:57;7.90;79.90
2130;DHT22;1071;52.544;13.374;2023-03-01T10:55:27;7.90;80.40
2130;DHT22;1071;52.544;13.374;2023-03-01T10:58:09;7.90;78.10
2130;DHT22;1071;52.544;13.374;2023-03-01T11:00:47;7.90;77.80
2130;DHT22;1071;52.544;13.374;2023-03-01T11:03:19;7.90;77.30
2130;DHT22;1071;52.544;13.374;2023-03-01T11:06:05;8.00;77.00
2130;DHT22;1071;52.544;13.374;2023-03-01T11:08:40;8.00;75.80
2130;DHT22;1071;52.544;13.374;2023-03-01T11:11:25;8.10;76.60
2130;DHT22;1071;52.544;13.374;2023-03-01T11:13:58;8.10;76.20
2130;DHT22;1071;52.544;13.374;2023-03-01T11:16:32;8.20;76.50
2130;DHT22;1071;52.544;13.374;2023-03-01T11:19:17;8.20;76.30
2130;DHT22;1071;52.544;13.374;2023-03-01T11:21:52;8.20;76.20
2130;DHT22;1071;52.544;13.374;2023-03-01T11:24:28;8.20;76.30
2130;DHT22;1071;52.544;13.374;2023-03-01T11:27:00;8.30;76.50
2130;DHT22;1071;52.544;13.374;2023-03-01T11:29:35;8.30;76.40
2130;DHT22;1071;52.544;13.374;2023-03-01T11:32:07;8.40;76.10
2130;DHT22;1071;52.544;13.374;2023-03-01T11:34:43;8.40;76.00
2130;DHT22;1071;52.544;13.374;2023-03-01T11:37:22;8.50;73.60
2130;DHT22;1071;52.544;13.374;2023-03-01T11:39:57;8.50;72.30
2130;DHT22;1071;52.544;13.374;2023-03-01T11:42:37;8.50;69.50
2130;DHT22;1071;52.544;13.374;2023-03-01T11:45:08;8.50;67.90
2130;DHT22;1071;52.544;13.374;2023-03-01T11:47:59;8.60;66.30
2130;DHT22;1071;52.544;13.374;2023-03-01T11:50:35;8.60;64.40
2130;DHT22;1071;52.544;13.374;2023-03-01T11:53:30;8.60;64.30
2130;DHT22;1071;52.544;13.374;2023-03-01T11:56:13;8.60;63.20
2130;DHT22;1071;52.544;13.374;2023-03-01T11:59:03;8.60;62.80
2130;DHT22;1071;52.544;13.374;2023-03-01T12:01:51;8.60;63.20
2130;DHT22;1071;52.544;13.374;2023-03-01T12:04:59;8.70;64.00
2130;DHT22;1071;52.544;13.374;2023-03-01T12:07:39;8.70;63.10
2130;DHT22;1071;52.544;13.374;2023-03-01T12:10:20;8.70;62.70
2130;DHT22;1071;52.544;13.374;2023-03-01T12:13:03;8.80;62.60
2130;DHT22;1071;52.544;13.374;2023-03-01T12:16:02;8.80;62.80
2130;DHT22;1071;52.544;13.374;2023-03-01T12:21:47;8.90;61.50
2130;DHT22;1071;52.544;13.374;2023-03-01T12:27:35;8.90;61.80
2130;DHT22;1071;52.544;13.374;2023-03-01T12:30:20;8.90;62.00
2130;DHT22;1071;52.544;13.374;2023-03-01T12:32:58;9.00;62.80
2130;DHT22;1071;52.544;13.374;2023-03-01T12:35:40;9.00;63.20
2130;DHT22;1071;52.544;13.374;2023-03-01T12:38:25;9.00;63.60
2130;DHT22;1071;52.544;13.374;2023-03-01T12:41:16;9.10;63.10
2130;DHT22;1071;52.544;13.374;2023-03-01T12:43:54;9.10;62.80
2130;DHT22;1071;52.544;13.374;2023-03-01T12:46:35;9.10;62.70
2130;DHT22;1071;52.544;13.374;2023-03-01T12:49:10;9.20;62.30
2130;DHT22;1071;52.544;13.374;2023-03-01T12:51:40;9.20;62.10
2130;DHT22;1071;52.544;13.374;2023-03-01T12:54:15;9.20;62.10
2130;DHT22;1071;52.544;13.374;2023-03-01T12:56:45;9.20;62.10
2130;DHT22;1071;52.544;13.374;2023-03-01T12:59:21;9.20;62.10
2130;DHT22;1071;52.544;13.374;2023-03-01T13:01:56;9.20;61.70
2130;DHT22;1071;52.544;13.374;2023-03-01T13:04:35;9.30;61.20
2130;DHT22;1071;52.544;13.374;2023-03-01T13:07:29;9.30;61.00
2130;DHT22;1071;52.544;13.374;2023-03-01T13:13:02;9.30;59.90
2130;DHT22;1071;52.544;13.374;2023-03-01T13:15:34;9.40;60.00
2130;DHT22;1071;52.544;13.374;2023-03-01T13:18:07;9.40;59.80
2130;DHT22;1071;52.544;13.374;2023-03-01T13:20:54;9.40;59.70
2130;DHT22;1071;52.544;13.374;2023-03-01T13:23:27;9.40;60.00
2130;DHT22;1071;52.544;13.374;2023-03-01T13:26:04;9.40;59.70
2130;DHT22;1071;52.544;13.374;2023-03-01T13:28:50;9.50;59.90
2130;DHT22;1071;52.544;13.374;2023-03-01T13:34:45;9.50;59.90
2130;DHT22;1071;52.544;13.374;2023-03-01T13:37:20;9.50;59.20
2130;DHT22;1071;52.544;13.374;2023-03-01T13:39:47;9.50;59.50
2130;DHT22;1071;52.544;13.374;2023-03-01T13:42:38;9.50;59.40
2130;DHT22;1071;52.544;13.374;2023-03-01T13:45:32;9.50;58.90
2130;DHT22;1071;52.544;13.374;2023-03-01T13:48:03;9.50;57.40
2130;DHT22;1071;52.544;13.374;2023-03-01T13:50:42;9.50;57.20
2130;DHT22;1071;52.544;13.374;2023-03-01T13:53:15;9.50;56.70
2130;DHT22;1071;52.544;13.374;2023-03-01T13:55:45;9.50;56.50
2130;DHT22;1071;52.544;13.374;2023-03-01T13:58:20;9.50;56.50
2130;DHT22;1071;52.544;13.374;2023-03-01T14:00:55;9.50;57.00
2130;DHT22;1071;52.544;13.374;2023-03-01T14:03:23;9.50;57.20
2130;DHT22;1071;52.544;13.374;2023-03-01T14:06:03;9.50;57.00
2130;DHT22;1071;52.544;13.374;2023-03-01T14:08:36;9.50;57.20
2130;DHT22;1071;52.544;13.374;2023-03-01T14:14:41;9.50;57.80
2130;DHT22;1071;52.544;13.374;2023-03-01T14:17:46;9.50;57.80
2130;DHT22;1071;52.544;13.374;2023-03-01T14:20:19;9.50;57.60
2130;DHT22;1071;52.544;13.374;2023-03-01T14:22:50;9.50;57.80
2130;DHT22;1071;52.544;13.374;2023-03-01T14:25:24;9.50;58.30
2130;DHT22;1071;52.544;13.374;2023-03-01T14:27:59;9.50;58.50
2130;DHT22;1071;52.544;13.374;2023-03-01T14:30:30;9.50;58.70
2130;DHT22;1071;52.544;13.374;2023-03-01T14:33:01;9.50;59.00
2130;DHT22;1071;52.544;13.374;2023-03-01T14:35:31;9.50;59.10
2130;DHT22;1071;52.544;13.374;2023-03-01T14:37:59;9.50;59.10
2130;DHT22;1071;52.544;13.374;2023-03-01T14:40:28;9.50;59.00
2130;DHT22;1071;52.544;13.374;2023-03-01T14:43:00;9.50;59.40
2130;DHT22;1071;52.544;13.374;2023-03-01T14:45:29;9.50;59.70
2130;DHT22;1071;52.544;13.374;2023-03-01T14:48:02;9.50;59.60
2130;DHT22;1071;52.544;13.374;2023-03-01T14:50:31;9.50;59.60
2130;DHT22;1071;52.544;13.374;2023-03-01T14:53:00;9.50;59.60
2130;DHT22;1071;52.544;13.374;2023-03-01T14:55:31;9.50;60.30
2130;DHT22;1071;52.544;13.374;2023-03-01T14:58:03;9.50;61.00
2130;DHT22;1071;52.544;13.374;2023-03-01T15:00:33;9.50;61.30
2130;DHT22;1071;52.544;13.374;2023-03-01T15:03:07;9.50;61.70
2130;DHT22;1071;52.544;13.374;2023-03-01T15:05:39;9.50;61.10
2130;DHT22;1071;52.544;13.374;2023-03-01T15:08:07;9.50;61.40
2130;DHT22;1071;52.544;13.374;2023-03-01T15:10:36;9.50;62.30
2130;DHT22;1071;52.544;13.374;2023-03-01T15:13:12;9.50;63.30
2130;DHT22;1071;52.544;13.374;2023-03-01T15:15:43;9.50;63.70
2130;DHT22;1071;52.544;13.374;2023-03-01T15:18:18;9.50;64.90
2130;DHT22;1071;52.544;13.374;2023-03-01T15:20:46;9.50;64.60
2130;DHT22;1071;52.544;13.374;2023-03-01T15:23:31;9.50;64.70
2130;DHT22;1071;52.544;13.374;2023-03-01T15:25:58;9.50;64.50
2130;DHT22;1071;52.544;13.374;2023-03-01T15:28:28;9.50;64.40
2130;DHT22;1071;52.544;13.374;2023-03-01T15:31:01;9.40;64.30
2130;DHT22;1071;52.544;13.374;2023-03-01T15:33:33;9.40;64.30
2130;DHT22;1071;52.544;13.374;2023-03-01T15:36:02;9.40;64.80
2130;DHT22;1071;52.544;13.374;2023-03-01T15:38:35;9.40;63.90
2130;DHT22;1071;52.544;13.374;2023-03-01T15:41:23;9.40;64.60
2130;DHT22;1071;52.544;13.374;2023-03-01T15:43:51;9.40;65.60
2130;DHT22;1071;52.544;13.374;2023-03-01T15:46:27;9.40;65.80
2130;DHT22;1071;52.544;13.374;2023-03-01T15:48:58;9.30;66.30
2130;DHT22;1071;52.544;13.374;2023-03-01T15:51:36;9.30;66.60
2130;DHT22;1071;52.544;13.374;2023-03-01T15:54:17;9.30;66.80
2130;DHT22;1071;52.544;13.374;2023-03-01T15:56:45;9.20;67.20
2130;DHT22;1071;52.544;13.374;2023-03-01T15:59:13;9.20;67.60
2130;DHT22;1071;52.544;13.374;2023-03-01T16:01:40;9.20;67.20
2130;DHT22;1071;52.544;13.374;2023-03-01T16:04:10;9.20;67.20
2130;DHT22;1071;52.544;13.374;2023-03-01T16:06:41;9.10;67.60
2130;DHT22;1071;52.544;13.374;2023-03-01T16:09:08;9.20;67.40
2130;DHT22;1071;52.544;13.374;2023-03-01T16:11:37;9.10;67.80
2130;DHT22;1071;52.544;13.374;2023-03-01T16:14:07;9.10;68.60
2130;DHT22;1071;52.544;13.374;2023-03-01T16:16:35;9.10;69.00
2130;DHT22;1071;52.544;13.374;2023-03-01T16:19:02;9.10;69.70
2130;DHT22;1071;52.544;13.374;2023-03-01T16:21:30;9.10;70.20
2130;DHT22;1071;52.544;13.374;2023-03-01T16:24:07;9.00;70.60
2130;DHT22;1071;52.544;13.374;2023-03-01T16:26:36;9.00;70.00
2130;DHT22;1071;52.544;13.374;2023-03-01T16:29:04;9.00;69.30
2130;DHT22;1071;52.544;13.374;2023-03-01T16:31:31;9.00;70.10
2130;DHT22;1071;52.544;13.374;2023-03-01T16:33:59;8.90;70.60
2130;DHT22;1071;52.544;13.374;2023-03-01T16:36:26;8.90;71.40
2130;DHT22;1071;52.544;13.374;2023-03-01T16:38:58;8.90;71.80
2130;DHT22;1071;52.544;13.374;2023-03-01T16:41:26;8.90;72.20
2130;DHT22;1071;52.544;13.374;2023-03-01T16:43:53;8.90;72.80
2130;DHT22;1071;52.544;13.374;2023-03-01T16:46:23;8.80;73.10